sensor_id;sensor_type;location;lat;lon;timestamp;P1;durP1;ratioP1;P2;durP2;ratioP2
31537;SDS011;18147;51.952;6.146;2023-11-19T00:01:40;60.28;;;32.92;;
31537;SDS011;18147;51.952;6.146;2023-11-19T00:04:05;56.97;;;32.40;;
31537;SDS011;18147;51.952;6.146;2023-11-19T00:06:31;55.63;;;31.50;;
31537;SDS011;18147;51.952;6.146;2023-11-19T00:08:57;61.65;;;32.08;;
31537;SDS011;18147;51.952;6.146;2023-11-19T00:11:22;53.05;;;31.50;;
31537;SDS011;18147;51.952;6.146;2023-11-19T00:13:48;59.40;;;33.08;;
31537;SDS011;18147;51.952;6.146;2023-11-19T00:16:14;54.70;;;30.17;;
31537;SDS011;18147;51.952;6.146;2023-11-19T00:18:45;50.63;;;28.95;;
31537;SDS011;18147;51.952;6.146;2023-11-19T00:21:11;60.28;;;29.98;;
31537;SDS011;18147;51.952;6.146;2023-11-19T00:23:36;47.95;;;28.52;;
31537;SDS011;18147;51.952;6.146;2023-11-19T00:26:02;50.00;;;28.52;;
31537;SDS011;18147;51.952;6.146;2023-11-19T00:28:31;44.13;;;27.83;;
31537;SDS011;18147;51.952;6.146;2023-11-19T00:30:58;47.63;;;28.77;;
31537;SDS011;18147;51.952;6.146;2023-11-19T00:33:29;41.00;;;26.97;;
31537;SDS011;18147;51.952;6.146;2023-11-19T00:35:57;46.38;;;26.92;;
31537;SDS011;18147;51.952;6.146;2023-11-19T00:38:23;44.40;;;26.52;;
31537;SDS011;18147;51.952;6.146;2023-11-19T00:40:48;55.97;;;28.15;;
31537;SDS011;18147;51.952;6.146;2023-11-19T00:43:14;46.28;;;24.30;;
31537;SDS011;18147;51.952;6.146;2023-11-19T00:45:39;41.30;;;25.05;;
31537;SDS011;18147;51.952;6.146;2023-11-19T00:48:08;51.55;;;26.27;;
31537;SDS011;18147;51.952;6.146;2023-11-19T00:50:34;49.03;;;25.50;;
31537;SDS011;18147;51.952;6.146;2023-11-19T00:52:59;39.60;;;24.85;;
31537;SDS011;18147;51.952;6.146;2023-11-19T00:55:25;43.03;;;23.88;;
31537;SDS011;18147;51.952;6.146;2023-11-19T00:57:51;36.53;;;23.13;;
31537;SDS011;18147;51.952;6.146;2023-11-19T01:00:17;42.78;;;22.23;;
31537;SDS011;18147;51.952;6.146;2023-11-19T01:02:49;42.72;;;23.48;;
31537;SDS011;18147;51.952;6.146;2023-11-19T01:05:15;42.30;;;23.60;;
31537;SDS011;18147;51.952;6.146;2023-11-19T01:07:41;47.63;;;21.52;;
31537;SDS011;18147;51.952;6.146;2023-11-19T01:10:06;37.45;;;20.80;;
31537;SDS011;18147;51.952;6.146;2023-11-19T01:12:33;45.50;;;22.20;;
31537;SDS011;18147;51.952;6.146;2023-11-19T01:14:59;41.65;;;20.45;;
31537;SDS011;18147;51.952;6.146;2023-11-19T01:17:24;43.08;;;19.75;;
31537;SDS011;18147;51.952;6.146;2023-11-19T01:19:56;44.22;;;20.35;;
31537;SDS011;18147;51.952;6.146;2023-11-19T01:22:24;42.65;;;19.40;;
31537;SDS011;18147;51.952;6.146;2023-11-19T01:24:50;46.30;;;19.35;;
31537;SDS011;18147;51.952;6.146;2023-11-19T01:27:17;44.78;;;18.45;;
31537;SDS011;18147;51.952;6.146;2023-11-19T01:29:42;48.50;;;19.42;;
31537;SDS011;18147;51.952;6.146;2023-11-19T01:32:09;34.92;;;19.05;;
31537;SDS011;18147;51.952;6.146;2023-11-19T01:34:34;39.90;;;18.95;;
31537;SDS011;18147;51.952;6.146;2023-11-19T01:37:04;39.38;;;18.48;;
31537;SDS011;18147;51.952;6.146;2023-11-19T01:39:29;43.13;;;18.30;;
31537;SDS011;18147;51.952;6.146;2023-11-19T01:41:55;41.30;;;18.17;;
31537;SDS011;18147;51.952;6.146;2023-11-19T01:44:21;43.58;;;19.00;;
31537;SDS011;18147;51.952;6.146;2023-11-19T01:46:46;39.92;;;16.73;;
31537;SDS011;18147;51.952;6.146;2023-11-19T01:49:17;49.92;;;17.40;;
31537;SDS011;18147;51.952;6.146;2023-11-19T01:51:44;48.20;;;16.63;;
31537;SDS011;18147;51.952;6.146;2023-11-19T01:54:12;42.38;;;17.73;;
31537;SDS011;18147;51.952;6.146;2023-11-19T01:56:38;41.97;;;15.68;;
31537;SDS011;18147;51.952;6.146;2023-11-19T01:59:06;43.45;;;15.30;;
31537;SDS011;18147;51.952;6.146;2023-11-19T02:01:32;44.35;;;16.67;;
31537;SDS011;18147;51.952;6.146;2023-11-19T02:04:03;44.78;;;13.93;;
31537;SDS011;18147;51.952;6.146;2023-11-19T02:06:29;33.47;;;14.48;;
31537;SDS011;18147;51.952;6.146;2023-11-19T02:08:57;38.25;;;14.63;;
31537;SDS011;18147;51.952;6.146;2023-11-19T02:11:23;51.05;;;14.55;;
31537;SDS011;18147;51.952;6.146;2023-11-19T02:13:55;48.45;;;13.93;;
31537;SDS011;18147;51.952;6.146;2023-11-19T02:16:21;39.60;;;13.30;;
31537;SDS011;18147;51.952;6.146;2023-11-19T02:18:50;40.25;;;13.48;;
31537;SDS011;18147;51.952;6.146;2023-11-19T02:21:15;49.08;;;12.98;;
31537;SDS011;18147;51.952;6.146;2023-11-19T02:23:42;46.53;;;13.00;;
31537;SDS011;18147;51.952;6.146;2023-11-19T02:28:47;46.60;;;11.57;;
31537;SDS011;18147;51.952;6.146;2023-11-19T02:31:16;47.15;;;11.85;;
31537;SDS011;18147;51.952;6.146;2023-11-19T02:33:42;37.38;;;10.75;;
31537;SDS011;18147;51.952;6.146;2023-11-19T02:36:08;45.90;;;11.98;;
31537;SDS011;18147;51.952;6.146;2023-11-19T02:38:34;39.83;;;10.27;;
31537;SDS011;18147;51.952;6.146;2023-11-19T02:41:03;58.20;;;12.57;;
31537;SDS011;18147;51.952;6.146;2023-11-19T02:43:31;48.70;;;10.35;;
31537;SDS011;18147;51.952;6.146;2023-11-19T02:46:00;44.60;;;10.65;;
31537;SDS011;18147;51.952;6.146;2023-11-19T02:48:34;48.97;;;11.35;;
31537;SDS011;18147;51.952;6.146;2023-11-19T02:51:00;45.53;;;11.18;;
31537;SDS011;18147;51.952;6.146;2023-11-19T02:53:29;44.05;;;12.48;;
31537;SDS011;18147;51.952;6.146;2023-11-19T02:55:55;36.45;;;9.50;;
31537;SDS011;18147;51.952;6.146;2023-11-19T02:58:27;45.28;;;10.00;;
31537;SDS011;18147;51.952;6.146;2023-11-19T03:00:54;51.13;;;11.50;;
31537;SDS011;18147;51.952;6.146;2023-11-19T03:03:26;46.95;;;10.38;;
31537;SDS011;18147;51.952;6.146;2023-11-19T03:06:04;35.40;;;9.57;;
31537;SDS011;18147;51.952;6.146;2023-11-19T03:08:30;52.10;;;9.70;;
31537;SDS011;18147;51.952;6.146;2023-11-19T03:10:55;60.03;;;9.65;;
31537;SDS011;18147;51.952;6.146;2023-11-19T03:13:21;52.35;;;10.02;;
31537;SDS011;18147;51.952;6.146;2023-11-19T03:15:49;52.15;;;10.45;;
31537;SDS011;18147;51.952;6.146;2023-11-19T03:18:15;53.90;;;10.02;;
31537;SDS011;18147;51.952;6.146;2023-11-19T03:20:41;52.42;;;9.73;;
31537;SDS011;18147;51.952;6.146;2023-11-19T03:23:06;56.10;;;10.30;;
31537;SDS011;18147;51.952;6.146;2023-11-19T03:25:32;49.72;;;10.63;;
31537;SDS011;18147;51.952;6.146;2023-11-19T03:28:02;48.80;;;10.00;;
31537;SDS011;18147;51.952;6.146;2023-11-19T03:30:28;49.95;;;10.50;;
31537;SDS011;18147;51.952;6.146;2023-11-19T03:32:57;48.10;;;10.82;;
31537;SDS011;18147;51.952;6.146;2023-11-19T03:35:25;66.10;;;10.18;;
31537;SDS011;18147;51.952;6.146;2023-11-19T03:37:51;56.15;;;10.65;;
31537;SDS011;18147;51.952;6.146;2023-11-19T03:40:18;55.13;;;11.00;;
31537;SDS011;18147;51.952;6.146;2023-11-19T03:42:44;55.28;;;10.68;;
31537;SDS011;18147;51.952;6.146;2023-11-19T03:45:11;62.10;;;10.80;;
31537;SDS011;18147;51.952;6.146;2023-11-19T03:47:37;55.97;;;9.65;;
31537;SDS011;18147;51.952;6.146;2023-11-19T03:50:04;72.63;;;11.88;;
31537;SDS011;18147;51.952;6.146;2023-11-19T03:52:30;69.65;;;11.50;;
31537;SDS011;18147;51.952;6.146;2023-11-19T03:54:55;62.20;;;10.80;;
31537;SDS011;18147;51.952;6.146;2023-11-19T03:57:25;59.25;;;10.35;;
31537;SDS011;18147;51.952;6.146;2023-11-19T03:59:52;68.05;;;12.15;;
31537;SDS011;18147;51.952;6.146;2023-11-19T04:02:17;75.03;;;10.32;;
31537;SDS011;18147;51.952;6.146;2023-11-19T04:04:43;72.05;;;12.27;;
31537;SDS011;18147;51.952;6.146;2023-11-19T04:07:09;71.88;;;11.52;;
31537;SDS011;18147;51.952;6.146;2023-11-19T04:09:36;65.82;;;12.48;;
31537;SDS011;18147;51.952;6.146;2023-11-19T04:12:02;67.75;;;11.45;;
31537;SDS011;18147;51.952;6.146;2023-11-19T04:14:28;54.28;;;10.75;;
31537;SDS011;18147;51.952;6.146;2023-11-19T04:16:54;67.57;;;12.43;;
31537;SDS011;18147;51.952;6.146;2023-11-19T04:19:20;65.85;;;11.02;;
31537;SDS011;18147;51.952;6.146;2023-11-19T04:21:47;65.90;;;12.23;;
31537;SDS011;18147;51.952;6.146;2023-11-19T04:24:13;58.70;;;11.10;;
31537;SDS011;18147;51.952;6.146;2023-11-19T04:26:41;68.28;;;11.32;;
31537;SDS011;18147;51.952;6.146;2023-11-19T04:29:14;62.33;;;11.52;;
31537;SDS011;18147;51.952;6.146;2023-11-19T04:31:42;62.25;;;10.45;;
31537;SDS011;18147;51.952;6.146;2023-11-19T04:34:08;56.10;;;11.07;;
31537;SDS011;18147;51.952;6.146;2023-11-19T04:36:33;56.78;;;11.07;;
31537;SDS011;18147;51.952;6.146;2023-11-19T04:38:59;60.20;;;12.27;;
31537;SDS011;18147;51.952;6.146;2023-11-19T04:41:26;62.97;;;12.00;;
31537;SDS011;18147;51.952;6.146;2023-11-19T04:43:55;59.88;;;10.70;;
31537;SDS011;18147;51.952;6.146;2023-11-19T04:46:21;64.57;;;11.52;;
31537;SDS011;18147;51.952;6.146;2023-11-19T04:48:46;72.20;;;10.95;;
31537;SDS011;18147;51.952;6.146;2023-11-19T04:51:15;57.42;;;9.68;;
31537;SDS011;18147;51.952;6.146;2023-11-19T04:53:41;58.83;;;9.90;;
31537;SDS011;18147;51.952;6.146;2023-11-19T04:56:12;68.47;;;10.23;;
31537;SDS011;18147;51.952;6.146;2023-11-19T04:58:38;59.40;;;10.25;;
31537;SDS011;18147;51.952;6.146;2023-11-19T05:01:13;61.20;;;9.68;;
31537;SDS011;18147;51.952;6.146;2023-11-19T05:03:41;58.85;;;10.95;;
31537;SDS011;18147;51.952;6.146;2023-11-19T05:06:07;64.38;;;10.25;;
31537;SDS011;18147;51.952;6.146;2023-11-19T05:08:33;82.20;;;11.35;;
31537;SDS011;18147;51.952;6.146;2023-11-19T05:10:58;68.82;;;11.20;;
31537;SDS011;18147;51.952;6.146;2023-11-19T05:13:24;60.47;;;12.10;;
31537;SDS011;18147;51.952;6.146;2023-11-19T05:15:49;48.88;;;9.60;;
31537;SDS011;18147;51.952;6.146;2023-11-19T05:18:15;65.38;;;11.25;;
31537;SDS011;18147;51.952;6.146;2023-11-19T05:20:40;81.38;;;11.95;;
31537;SDS011;18147;51.952;6.146;2023-11-19T05:23:06;63.92;;;10.55;;
31537;SDS011;18147;51.952;6.146;2023-11-19T05:25:32;58.25;;;11.30;;
31537;SDS011;18147;51.952;6.146;2023-11-19T05:27:57;55.25;;;9.60;;
31537;SDS011;18147;51.952;6.146;2023-11-19T05:30:22;60.22;;;11.13;;
31537;SDS011;18147;51.952;6.146;2023-11-19T05:32:48;72.68;;;11.10;;
31537;SDS011;18147;51.952;6.146;2023-11-19T05:35:14;66.60;;;12.07;;
31537;SDS011;18147;51.952;6.146;2023-11-19T05:37:49;62.25;;;9.68;;
31537;SDS011;18147;51.952;6.146;2023-11-19T05:40:15;59.17;;;10.52;;
31537;SDS011;18147;51.952;6.146;2023-11-19T05:42:41;65.88;;;11.30;;
31537;SDS011;18147;51.952;6.146;2023-11-19T05:45:07;58.65;;;10.82;;
31537;SDS011;18147;51.952;6.146;2023-11-19T05:47:34;67.15;;;10.57;;
31537;SDS011;18147;51.952;6.146;2023-11-19T05:49:59;61.25;;;11.15;;
31537;SDS011;18147;51.952;6.146;2023-11-19T05:52:25;69.05;;;13.00;;
31537;SDS011;18147;51.952;6.146;2023-11-19T05:54:50;69.82;;;11.05;;
31537;SDS011;18147;51.952;6.146;2023-11-19T05:57:19;51.15;;;10.60;;
31537;SDS011;18147;51.952;6.146;2023-11-19T05:59:50;66.18;;;12.80;;
31537;SDS011;18147;51.952;6.146;2023-11-19T06:02:17;57.05;;;9.95;;
31537;SDS011;18147;51.952;6.146;2023-11-19T06:04:42;66.35;;;11.50;;
31537;SDS011;18147;51.952;6.146;2023-11-19T06:07:13;62.03;;;11.77;;
31537;SDS011;18147;51.952;6.146;2023-11-19T06:09:47;72.65;;;12.68;;
31537;SDS011;18147;51.952;6.146;2023-11-19T06:12:13;67.90;;;10.02;;
31537;SDS011;18147;51.952;6.146;2023-11-19T06:14:42;70.53;;;11.85;;
31537;SDS011;18147;51.952;6.146;2023-11-19T06:17:07;70.45;;;13.55;;
31537;SDS011;18147;51.952;6.146;2023-11-19T06:19:33;68.97;;;11.00;;
31537;SDS011;18147;51.952;6.146;2023-11-19T06:21:59;48.90;;;10.75;;
31537;SDS011;18147;51.952;6.146;2023-11-19T06:24:25;79.85;;;12.63;;
31537;SDS011;18147;51.952;6.146;2023-11-19T06:26:50;66.90;;;12.23;;
31537;SDS011;18147;51.952;6.146;2023-11-19T06:29:16;58.47;;;11.15;;
31537;SDS011;18147;51.952;6.146;2023-11-19T06:31:44;68.07;;;11.18;;
31537;SDS011;18147;51.952;6.146;2023-11-19T06:34:11;67.20;;;10.85;;
31537;SDS011;18147;51.952;6.146;2023-11-19T06:36:36;55.30;;;11.55;;
31537;SDS011;18147;51.952;6.146;2023-11-19T06:39:02;74.53;;;11.00;;
31537;SDS011;18147;51.952;6.146;2023-11-19T06:41:29;60.95;;;10.98;;
31537;SDS011;18147;51.952;6.146;2023-11-19T06:43:54;54.65;;;10.65;;
31537;SDS011;18147;51.952;6.146;2023-11-19T06:46:20;66.95;;;11.13;;
31537;SDS011;18147;51.952;6.146;2023-11-19T06:48:45;66.72;;;12.20;;
31537;SDS011;18147;51.952;6.146;2023-11-19T06:51:12;62.90;;;11.75;;
31537;SDS011;18147;51.952;6.146;2023-11-19T06:53:38;71.43;;;12.02;;
31537;SDS011;18147;51.952;6.146;2023-11-19T06:56:06;66.75;;;11.50;;
31537;SDS011;18147;51.952;6.146;2023-11-19T06:58:42;81.35;;;11.55;;
31537;SDS011;18147;51.952;6.146;2023-11-19T07:01:08;75.15;;;12.13;;
31537;SDS011;18147;51.952;6.146;2023-11-19T07:03:34;64.22;;;11.48;;
31537;SDS011;18147;51.952;6.146;2023-11-19T07:06:00;75.43;;;12.23;;
31537;SDS011;18147;51.952;6.146;2023-11-19T07:08:26;55.78;;;10.32;;
31537;SDS011;18147;51.952;6.146;2023-11-19T07:10:55;82.15;;;12.02;;
31537;SDS011;18147;51.952;6.146;2023-11-19T07:13:20;65.75;;;10.48;;
31537;SDS011;18147;51.952;6.146;2023-11-19T07:15:46;60.78;;;10.55;;
31537;SDS011;18147;51.952;6.146;2023-11-19T07:18:12;61.83;;;11.75;;
31537;SDS011;18147;51.952;6.146;2023-11-19T07:20:37;56.90;;;11.52;;
31537;SDS011;18147;51.952;6.146;2023-11-19T07:23:05;69.78;;;12.82;;
31537;SDS011;18147;51.952;6.146;2023-11-19T07:25:31;67.82;;;13.13;;
31537;SDS011;18147;51.952;6.146;2023-11-19T07:27:56;82.93;;;11.30;;
31537;SDS011;18147;51.952;6.146;2023-11-19T07:30:22;69.75;;;10.73;;
31537;SDS011;18147;51.952;6.146;2023-11-19T07:32:48;65.55;;;11.00;;
31537;SDS011;18147;51.952;6.146;2023-11-19T07:35:17;70.68;;;12.55;;
31537;SDS011;18147;51.952;6.146;2023-11-19T07:37:42;58.00;;;11.77;;
31537;SDS011;18147;51.952;6.146;2023-11-19T07:40:08;66.82;;;11.55;;
31537;SDS011;18147;51.952;6.146;2023-11-19T07:42:36;65.68;;;11.95;;
31537;SDS011;18147;51.952;6.146;2023-11-19T07:45:03;69.72;;;11.32;;
31537;SDS011;18147;51.952;6.146;2023-11-19T07:47:28;75.90;;;12.90;;
31537;SDS011;18147;51.952;6.146;2023-11-19T07:49:54;59.25;;;10.18;;
31537;SDS011;18147;51.952;6.146;2023-11-19T07:52:19;62.08;;;10.63;;
31537;SDS011;18147;51.952;6.146;2023-11-19T07:54:45;66.30;;;11.75;;
31537;SDS011;18147;51.952;6.146;2023-11-19T07:57:10;63.10;;;11.38;;
31537;SDS011;18147;51.952;6.146;2023-11-19T07:59:36;65.88;;;12.15;;
31537;SDS011;18147;51.952;6.146;2023-11-19T08:02:01;57.00;;;11.32;;
31537;SDS011;18147;51.952;6.146;2023-11-19T08:04:31;73.40;;;13.07;;
31537;SDS011;18147;51.952;6.146;2023-11-19T08:06:57;60.83;;;10.93;;
31537;SDS011;18147;51.952;6.146;2023-11-19T08:09:22;52.88;;;9.88;;
31537;SDS011;18147;51.952;6.146;2023-11-19T08:11:48;67.50;;;10.65;;
31537;SDS011;18147;51.952;6.146;2023-11-19T08:14:14;66.40;;;10.13;;
31537;SDS011;18147;51.952;6.146;2023-11-19T08:16:40;67.25;;;12.15;;
31537;SDS011;18147;51.952;6.146;2023-11-19T08:19:06;67.70;;;11.38;;
31537;SDS011;18147;51.952;6.146;2023-11-19T08:21:34;66.22;;;11.38;;
31537;SDS011;18147;51.952;6.146;2023-11-19T08:23:59;64.07;;;11.45;;
31537;SDS011;18147;51.952;6.146;2023-11-19T08:26:25;68.32;;;11.80;;
31537;SDS011;18147;51.952;6.146;2023-11-19T08:28:50;58.33;;;10.82;;
31537;SDS011;18147;51.952;6.146;2023-11-19T08:31:17;56.05;;;10.82;;
31537;SDS011;18147;51.952;6.146;2023-11-19T08:33:43;62.17;;;10.95;;
31537;SDS011;18147;51.952;6.146;2023-11-19T08:36:14;71.15;;;12.52;;
31537;SDS011;18147;51.952;6.146;2023-11-19T08:38:42;83.85;;;13.63;;
31537;SDS011;18147;51.952;6.146;2023-11-19T08:41:08;61.08;;;11.35;;
31537;SDS011;18147;51.952;6.146;2023-11-19T08:43:33;68.95;;;10.80;;
31537;SDS011;18147;51.952;6.146;2023-11-19T08:45:59;67.13;;;12.32;;
31537;SDS011;18147;51.952;6.146;2023-11-19T08:48:24;59.78;;;12.43;;
31537;SDS011;18147;51.952;6.146;2023-11-19T08:50:51;59.97;;;10.23;;
31537;SDS011;18147;51.952;6.146;2023-11-19T08:53:17;67.85;;;11.95;;
31537;SDS011;18147;51.952;6.146;2023-11-19T08:55:42;52.28;;;10.40;;
31537;SDS011;18147;51.952;6.146;2023-11-19T08:58:11;67.35;;;11.18;;
31537;SDS011;18147;51.952;6.146;2023-11-19T09:00:37;56.40;;;9.88;;
31537;SDS011;18147;51.952;6.146;2023-11-19T09:03:03;68.93;;;11.30;;
31537;SDS011;18147;51.952;6.146;2023-11-19T09:05:28;62.30;;;10.43;;
31537;SDS011;18147;51.952;6.146;2023-11-19T09:07:54;71.03;;;11.02;;
31537;SDS011;18147;51.952;6.146;2023-11-19T09:10:19;56.28;;;11.27;;
31537;SDS011;18147;51.952;6.146;2023-11-19T09:12:48;47.10;;;9.70;;
31537;SDS011;18147;51.952;6.146;2023-11-19T09:15:17;65.90;;;10.45;;
31537;SDS011;18147;51.952;6.146;2023-11-19T09:17:42;57.00;;;10.77;;
31537;SDS011;18147;51.952;6.146;2023-11-19T09:20:08;64.93;;;10.02;;
31537;SDS011;18147;51.952;6.146;2023-11-19T09:22:37;57.10;;;11.18;;
31537;SDS011;18147;51.952;6.146;2023-11-19T09:25:02;63.65;;;11.13;;
31537;SDS011;18147;51.952;6.146;2023-11-19T09:27:30;62.05;;;11.05;;
31537;SDS011;18147;51.952;6.146;2023-11-19T09:29:55;50.40;;;10.23;;
31537;SDS011;18147;51.952;6.146;2023-11-19T09:32:23;68.88;;;12.43;;
31537;SDS011;18147;51.952;6.146;2023-11-19T09:34:49;47.08;;;10.68;;
31537;SDS011;18147;51.952;6.146;2023-11-19T09:37:15;54.00;;;10.63;;
31537;SDS011;18147;51.952;6.146;2023-11-19T09:39:41;57.42;;;10.23;;
31537;SDS011;18147;51.952;6.146;2023-11-19T09:42:09;59.15;;;10.98;;
31537;SDS011;18147;51.952;6.146;2023-11-19T09:44:39;57.70;;;10.88;;
31537;SDS011;18147;51.952;6.146;2023-11-19T09:47:08;58.83;;;11.38;;
31537;SDS011;18147;51.952;6.146;2023-11-19T09:49:35;60.08;;;11.98;;
31537;SDS011;18147;51.952;6.146;2023-11-19T09:52:01;56.42;;;10.48;;
31537;SDS011;18147;51.952;6.146;2023-11-19T09:54:28;71.65;;;9.35;;
31537;SDS011;18147;51.952;6.146;2023-11-19T09:56:53;61.00;;;10.98;;
31537;SDS011;18147;51.952;6.146;2023-11-19T09:59:25;55.17;;;10.32;;
31537;SDS011;18147;51.952;6.146;2023-11-19T10:01:51;61.33;;;11.45;;
31537;SDS011;18147;51.952;6.146;2023-11-19T10:04:17;50.95;;;10.82;;
31537;SDS011;18147;51.952;6.146;2023-11-19T10:06:45;57.20;;;9.80;;
31537;SDS011;18147;51.952;6.146;2023-11-19T10:09:11;58.05;;;10.88;;
31537;SDS011;18147;51.952;6.146;2023-11-19T10:11:43;50.35;;;10.85;;
31537;SDS011;18147;51.952;6.146;2023-11-19T10:14:15;54.38;;;10.57;;
31537;SDS011;18147;51.952;6.146;2023-11-19T10:16:40;61.80;;;10.40;;
31537;SDS011;18147;51.952;6.146;2023-11-19T10:19:08;65.93;;;10.57;;
31537;SDS011;18147;51.952;6.146;2023-11-19T10:21:38;57.25;;;9.10;;
31537;SDS011;18147;51.952;6.146;2023-11-19T10:24:03;47.05;;;9.00;;
31537;SDS011;18147;51.952;6.146;2023-11-19T10:26:30;58.80;;;10.20;;
31537;SDS011;18147;51.952;6.146;2023-11-19T10:28:56;55.10;;;10.50;;
31537;SDS011;18147;51.952;6.146;2023-11-19T10:31:24;61.00;;;10.45;;
31537;SDS011;18147;51.952;6.146;2023-11-19T10:33:51;65.28;;;10.48;;
31537;SDS011;18147;51.952;6.146;2023-11-19T10:36:18;48.58;;;10.38;;
31537;SDS011;18147;51.952;6.146;2023-11-19T10:38:54;62.13;;;10.05;;
31537;SDS011;18147;51.952;6.146;2023-11-19T10:41:31;53.33;;;10.75;;
31537;SDS011;18147;51.952;6.146;2023-11-19T10:43:58;43.30;;;9.25;;
31537;SDS011;18147;51.952;6.146;2023-11-19T10:46:24;58.55;;;9.93;;
31537;SDS011;18147;51.952;6.146;2023-11-19T10:49:03;52.22;;;10.23;;
31537;SDS011;18147;51.952;6.146;2023-11-19T10:51:28;65.03;;;10.38;;
31537;SDS011;18147;51.952;6.146;2023-11-19T10:53:54;49.47;;;9.13;;
31537;SDS011;18147;51.952;6.146;2023-11-19T10:56:26;58.22;;;9.75;;
31537;SDS011;18147;51.952;6.146;2023-11-19T10:58:56;53.80;;;9.27;;
31537;SDS011;18147;51.952;6.146;2023-11-19T11:01:24;53.38;;;9.27;;
31537;SDS011;18147;51.952;6.146;2023-11-19T11:03:55;49.75;;;9.82;;
31537;SDS011;18147;51.952;6.146;2023-11-19T11:06:24;56.42;;;10.05;;
31537;SDS011;18147;51.952;6.146;2023-11-19T11:08:52;64.38;;;11.05;;
31537;SDS011;18147;51.952;6.146;2023-11-19T11:11:19;38.95;;;8.60;;
31537;SDS011;18147;51.952;6.146;2023-11-19T11:13:48;52.90;;;9.18;;
31537;SDS011;18147;51.952;6.146;2023-11-19T11:16:15;56.58;;;9.65;;
31537;SDS011;18147;51.952;6.146;2023-11-19T11:18:44;49.10;;;9.10;;
31537;SDS011;18147;51.952;6.146;2023-11-19T11:21:15;41.83;;;8.50;;
31537;SDS011;18147;51.952;6.146;2023-11-19T11:23:48;57.20;;;10.48;;
31537;SDS011;18147;51.952;6.146;2023-11-19T11:28:58;43.58;;;9.40;;
31537;SDS011;18147;51.952;6.146;2023-11-19T11:31:31;46.80;;;9.80;;
31537;SDS011;18147;51.952;6.146;2023-11-19T11:34:28;57.90;;;8.93;;
31537;SDS011;18147;51.952;6.146;2023-11-19T11:37:19;48.70;;;9.57;;
31537;SDS011;18147;51.952;6.146;2023-11-19T11:39:51;45.90;;;8.82;;
31537;SDS011;18147;51.952;6.146;2023-11-19T11:50:15;47.10;;;8.23;;
31537;SDS011;18147;51.952;6.146;2023-11-19T11:55:34;38.88;;;7.90;;
31537;SDS011;18147;51.952;6.146;2023-11-19T11:58:21;46.20;;;8.93;;
31537;SDS011;18147;51.952;6.146;2023-11-19T12:00:57;42.95;;;8.45;;
31537;SDS011;18147;51.952;6.146;2023-11-19T12:03:26;54.17;;;8.95;;
31537;SDS011;18147;51.952;6.146;2023-11-19T12:05:53;44.90;;;8.20;;
31537;SDS011;18147;51.952;6.146;2023-11-19T12:08:20;63.63;;;10.27;;
31537;SDS011;18147;51.952;6.146;2023-11-19T12:10:51;51.73;;;11.80;;
31537;SDS011;18147;51.952;6.146;2023-11-19T12:13:23;51.35;;;9.48;;
31537;SDS011;18147;51.952;6.146;2023-11-19T12:18:22;49.03;;;9.48;;
31537;SDS011;18147;51.952;6.146;2023-11-19T12:20:52;47.90;;;8.50;;
31537;SDS011;18147;51.952;6.146;2023-11-19T12:23:18;44.47;;;10.30;;
31537;SDS011;18147;51.952;6.146;2023-11-19T12:25:44;52.55;;;10.40;;
31537;SDS011;18147;51.952;6.146;2023-11-19T12:28:13;62.28;;;10.73;;
31537;SDS011;18147;51.952;6.146;2023-11-19T12:30:42;60.50;;;9.85;;
31537;SDS011;18147;51.952;6.146;2023-11-19T12:33:12;50.22;;;9.32;;
31537;SDS011;18147;51.952;6.146;2023-11-19T12:35:41;54.25;;;9.38;;
31537;SDS011;18147;51.952;6.146;2023-11-19T12:38:08;49.45;;;8.90;;
31537;SDS011;18147;51.952;6.146;2023-11-19T12:40:47;37.10;;;7.93;;
31537;SDS011;18147;51.952;6.146;2023-11-19T12:43:27;28.92;;;7.13;;
31537;SDS011;18147;51.952;6.146;2023-11-19T12:45:52;39.97;;;7.05;;
31537;SDS011;18147;51.952;6.146;2023-11-19T12:48:18;36.17;;;6.75;;
31537;SDS011;18147;51.952;6.146;2023-11-19T12:50:56;39.15;;;7.68;;
31537;SDS011;18147;51.952;6.146;2023-11-19T12:53:24;34.47;;;6.85;;
31537;SDS011;18147;51.952;6.146;2023-11-19T12:55:54;39.78;;;7.13;;
31537;SDS011;18147;51.952;6.146;2023-11-19T12:58:35;35.28;;;6.68;;
31537;SDS011;18147;51.952;6.146;2023-11-19T13:01:02;30.33;;;6.68;;
31537;SDS011;18147;51.952;6.146;2023-11-19T13:03:32;34.22;;;6.80;;
31537;SDS011;18147;51.952;6.146;2023-11-19T13:06:03;35.72;;;7.20;;
31537;SDS011;18147;51.952;6.146;2023-11-19T13:08:42;29.80;;;7.57;;
31537;SDS011;18147;51.952;6.146;2023-11-19T13:11:15;39.72;;;7.43;;
31537;SDS011;18147;51.952;6.146;2023-11-19T13:16:22;44.70;;;7.32;;
31537;SDS011;18147;51.952;6.146;2023-11-19T13:18:51;38.30;;;6.82;;
31537;SDS011;18147;51.952;6.146;2023-11-19T13:21:17;31.23;;;7.22;;
31537;SDS011;18147;51.952;6.146;2023-11-19T13:23:43;34.58;;;7.45;;
31537;SDS011;18147;51.952;6.146;2023-11-19T13:26:10;31.75;;;7.95;;
31537;SDS011;18147;51.952;6.146;2023-11-19T13:28:36;35.55;;;8.50;;
31537;SDS011;18147;51.952;6.146;2023-11-19T13:31:02;42.58;;;9.63;;
31537;SDS011;18147;51.952;6.146;2023-11-19T13:33:28;36.90;;;7.25;;
31537;SDS011;18147;51.952;6.146;2023-11-19T13:35:56;39.70;;;8.73;;
31537;SDS011;18147;51.952;6.146;2023-11-19T13:38:22;37.80;;;8.95;;
31537;SDS011;18147;51.952;6.146;2023-11-19T13:40:49;50.20;;;9.23;;
31537;SDS011;18147;51.952;6.146;2023-11-19T13:43:14;48.88;;;9.07;;
31537;SDS011;18147;51.952;6.146;2023-11-19T13:45:40;51.50;;;8.27;;
31537;SDS011;18147;51.952;6.146;2023-11-19T13:48:06;42.05;;;8.95;;
31537;SDS011;18147;51.952;6.146;2023-11-19T13:50:35;36.20;;;7.05;;
31537;SDS011;18147;51.952;6.146;2023-11-19T13:53:00;38.60;;;8.15;;
31537;SDS011;18147;51.952;6.146;2023-11-19T13:55:26;39.03;;;7.53;;
31537;SDS011;18147;51.952;6.146;2023-11-19T13:57:52;42.75;;;8.27;;
31537;SDS011;18147;51.952;6.146;2023-11-19T14:00:17;35.88;;;8.45;;
31537;SDS011;18147;51.952;6.146;2023-11-19T14:02:47;33.67;;;8.00;;
31537;SDS011;18147;51.952;6.146;2023-11-19T14:05:13;37.20;;;8.57;;
31537;SDS011;18147;51.952;6.146;2023-11-19T14:07:42;51.28;;;10.77;;
31537;SDS011;18147;51.952;6.146;2023-11-19T14:10:12;49.65;;;8.95;;
31537;SDS011;18147;51.952;6.146;2023-11-19T14:12:38;43.17;;;9.00;;
31537;SDS011;18147;51.952;6.146;2023-11-19T14:15:04;40.53;;;7.93;;
31537;SDS011;18147;51.952;6.146;2023-11-19T14:17:31;40.78;;;7.97;;
31537;SDS011;18147;51.952;6.146;2023-11-19T14:19:57;42.25;;;9.35;;
31537;SDS011;18147;51.952;6.146;2023-11-19T14:22:23;42.55;;;8.35;;
31537;SDS011;18147;51.952;6.146;2023-11-19T14:24:50;46.55;;;8.50;;
31537;SDS011;18147;51.952;6.146;2023-11-19T14:27:15;40.30;;;8.32;;
31537;SDS011;18147;51.952;6.146;2023-11-19T14:29:42;54.50;;;10.40;;
31537;SDS011;18147;51.952;6.146;2023-11-19T14:32:12;39.13;;;8.60;;
31537;SDS011;18147;51.952;6.146;2023-11-19T14:34:42;41.65;;;8.77;;
31537;SDS011;18147;51.952;6.146;2023-11-19T14:37:09;43.85;;;8.68;;
31537;SDS011;18147;51.952;6.146;2023-11-19T14:39:36;38.05;;;8.45;;
31537;SDS011;18147;51.952;6.146;2023-11-19T14:42:01;35.00;;;7.80;;
31537;SDS011;18147;51.952;6.146;2023-11-19T14:44:29;47.80;;;8.15;;
31537;SDS011;18147;51.952;6.146;2023-11-19T14:46:58;45.10;;;8.32;;
31537;SDS011;18147;51.952;6.146;2023-11-19T14:49:24;36.10;;;9.13;;